createdAt,value
2019-02-22T00:01:15.938Z,33.30
2019-02-22T00:03:44.458Z,32.67
2019-02-22T00:06:12.898Z,32.93
2019-02-22T00:08:41.351Z,34.30
2019-02-22T00:11:09.799Z,32.10
2019-02-22T00:13:38.272Z,31.40
2019-02-22T00:16:06.699Z,32.03
2019-02-22T00:18:35.145Z,30.30
2019-02-22T00:21:03.582Z,31.33
2019-02-22T00:23:33.516Z,31.43
2019-02-22T00:26:01.947Z,31.93
2019-02-22T00:28:30.387Z,31.30
2019-02-22T00:30:58.920Z,31.57
2019-02-22T00:33:27.348Z,32.43
2019-02-22T00:35:55.868Z,32.47
2019-02-22T00:38:27.000Z,31.37
2019-02-22T00:40:54.674Z,32.50
2019-02-22T00:43:23.100Z,33.40
2019-02-22T00:45:51.529Z,31.90
2019-02-22T00:48:19.976Z,31.50
2019-02-22T00:50:48.427Z,29.37
2019-02-22T00:53:16.908Z,33.17
2019-02-22T00:55:45.308Z,30.60
2019-02-22T00:58:13.861Z,33.10
2019-02-22T01:00:42.295Z,31.33
2019-02-22T01:03:10.725Z,31.70
2019-02-22T01:05:39.191Z,30.10
2019-02-22T01:08:07.652Z,33.30
2019-02-22T01:10:36.087Z,31.50
2019-02-22T01:13:04.558Z,30.90
2019-02-22T01:15:33.079Z,30.63
2019-02-22T01:18:01.543Z,31.27
2019-02-22T01:20:30.002Z,32.23
2019-02-22T01:22:58.539Z,31.57
2019-02-22T01:25:27.013Z,30.50
2019-02-22T01:27:55.612Z,31.57
2019-02-22T01:30:24.051Z,32.87
2019-02-22T01:32:52.534Z,30.70
2019-02-22T01:35:20.962Z,31.80
2019-02-22T01:37:49.427Z,31.27
2019-02-22T01:40:17.905Z,32.27
2019-02-22T01:42:46.346Z,31.97
2019-02-22T01:45:14.807Z,32.07
2019-02-22T01:47:43.250Z,32.30
2019-02-22T01:50:14.956Z,30.23
2019-02-22T01:52:43.397Z,31.03
2019-02-22T01:55:11.816Z,30.23
2019-02-22T01:57:40.247Z,30.90
2019-02-22T02:00:11.109Z,29.90
2019-02-22T02:02:39.599Z,30.10
2019-02-22T02:05:08.126Z,31.63
2019-02-22T02:07:36.608Z,30.63
2019-02-22T02:10:06.858Z,29.83
2019-02-22T02:12:35.238Z,32.07
2019-02-22T02:15:03.872Z,31.80
2019-02-22T02:17:32.280Z,29.57
2019-02-22T02:20:01.118Z,28.57
2019-02-22T02:22:29.793Z,29.53
2019-02-22T02:24:58.319Z,30.27
2019-02-22T02:27:26.785Z,28.70
2019-02-22T02:29:55.265Z,29.57
2019-02-22T02:32:23.701Z,29.13
2019-02-22T02:34:52.146Z,28.70
2019-02-22T02:37:20.570Z,30.30
2019-02-22T02:39:49.000Z,31.30
2019-02-22T02:42:17.513Z,30.13
2019-02-22T02:44:45.947Z,28.23
2019-02-22T02:47:14.423Z,27.73
2019-02-22T02:49:42.843Z,29.57
2019-02-22T02:52:11.415Z,27.40
2019-02-22T02:54:39.860Z,29.03
2019-02-22T02:57:08.315Z,28.07
2019-02-22T02:59:36.791Z,27.37
2019-02-22T03:02:06.857Z,26.43
2019-02-22T03:04:35.283Z,26.73
2019-02-22T03:07:11.013Z,25.57
2019-02-22T03:09:39.535Z,26.23
2019-02-22T03:12:07.967Z,25.70
2019-02-22T03:14:36.404Z,24.83
2019-02-22T03:17:05.004Z,24.70
2019-02-22T03:19:33.399Z,24.27
2019-02-22T03:22:01.841Z,24.20
2019-02-22T03:24:30.278Z,22.00
2019-02-22T03:26:58.713Z,21.33
2019-02-22T03:29:27.121Z,21.87
2019-02-22T03:31:55.581Z,20.40
2019-02-22T03:34:24.040Z,21.57
2019-02-22T03:36:52.573Z,20.07
2019-02-22T03:39:21.000Z,22.63
2019-02-22T03:41:49.432Z,21.20
2019-02-22T03:44:17.943Z,21.80
2019-02-22T03:46:46.358Z,20.07
2019-02-22T03:49:14.800Z,21.17
2019-02-22T03:51:43.277Z,19.53
2019-02-22T03:54:11.923Z,19.80
2019-02-22T03:56:40.353Z,20.27
2019-02-22T03:59:08.871Z,20.47
2019-02-22T04:01:37.386Z,19.53
2019-02-22T04:04:05.853Z,20.50
2019-02-22T04:06:34.294Z,19.07
2019-02-22T04:09:02.800Z,18.53
2019-02-22T04:11:31.318Z,20.23
2019-02-22T04:13:59.770Z,20.30
2019-02-22T04:16:28.207Z,19.37
2019-02-22T04:18:56.702Z,19.83
2019-02-22T04:21:25.141Z,19.60
2019-02-22T04:23:53.828Z,19.67
2019-02-22T04:26:22.231Z,20.10
2019-02-22T04:28:52.289Z,19.83
2019-02-22T04:31:20.739Z,22.17
2019-02-22T04:33:49.164Z,19.93
2019-02-22T04:36:17.607Z,19.17
2019-02-22T04:38:46.098Z,21.80
2019-02-22T04:41:14.532Z,19.17
2019-02-22T04:43:42.984Z,18.40
2019-02-22T04:46:11.498Z,20.60
2019-02-22T04:48:39.970Z,19.23
2019-02-22T04:51:08.766Z,18.63
2019-02-22T04:53:37.209Z,20.47
2019-02-22T04:56:05.652Z,19.30
2019-02-22T04:58:34.076Z,18.90
2019-02-22T05:01:02.594Z,19.27
2019-02-22T05:03:31.036Z,18.97
2019-02-22T05:05:59.501Z,20.67
2019-02-22T05:08:27.924Z,20.77
2019-02-22T05:10:56.351Z,20.57
2019-02-22T05:13:24.817Z,19.43
2019-02-22T05:15:53.409Z,19.93
2019-02-22T05:18:21.880Z,19.67
2019-02-22T05:20:50.393Z,20.30
2019-02-22T05:23:18.883Z,19.93
2019-02-22T05:25:47.318Z,18.93
2019-02-22T05:28:15.751Z,20.40
2019-02-22T05:30:44.209Z,19.93
2019-02-22T05:33:12.634Z,19.40
2019-02-22T05:35:41.067Z,22.37
2019-02-22T05:38:09.613Z,20.70
2019-02-22T05:40:38.060Z,19.47
2019-02-22T05:43:06.538Z,20.07
2019-02-22T05:45:34.980Z,19.90
2019-02-22T05:48:03.415Z,19.07
2019-02-22T05:50:31.872Z,19.27
2019-02-22T05:53:00.324Z,21.93
2019-02-22T05:55:28.838Z,21.60
2019-02-22T05:57:57.373Z,21.30
2019-02-22T06:00:26.004Z,19.33
2019-02-22T06:02:54.638Z,21.03
2019-02-22T06:05:23.565Z,20.93
2019-02-22T06:07:52.151Z,21.77
2019-02-22T06:10:20.671Z,20.17
2019-02-22T06:12:49.618Z,19.27
2019-02-22T06:15:18.067Z,21.00
2019-02-22T06:17:46.568Z,19.97
2019-02-22T06:20:14.956Z,19.67
2019-02-22T06:22:43.431Z,21.00
2019-02-22T06:25:11.900Z,19.10
2019-02-22T06:27:40.417Z,20.90
2019-02-22T06:30:10.524Z,20.07
2019-02-22T06:32:41.971Z,20.57
2019-02-22T06:35:09.337Z,20.43
2019-02-22T06:37:38.157Z,17.87
2019-02-22T06:40:09.193Z,18.73
2019-02-22T06:42:45.370Z,19.60
2019-02-22T06:45:08.953Z,20.57
2019-02-22T06:47:37.381Z,19.97
2019-02-22T06:50:07.883Z,20.63
2019-02-22T06:52:36.387Z,20.87
2019-02-22T06:55:06.250Z,20.40
2019-02-22T06:57:34.829Z,19.27
2019-02-22T07:00:05.468Z,21.03
2019-02-22T07:02:33.924Z,21.07
2019-02-22T07:05:02.379Z,21.63
2019-02-22T07:07:30.826Z,21.93
2019-02-22T07:09:59.365Z,22.30
2019-02-22T07:12:32.092Z,22.53
2019-02-22T07:15:00.652Z,22.93
2019-02-22T07:17:29.096Z,21.80
2019-02-22T07:19:57.607Z,22.13
2019-02-22T07:22:26.155Z,21.43
2019-02-22T07:24:54.571Z,21.40
2019-02-22T07:27:22.985Z,23.03
2019-02-22T07:29:51.587Z,22.13
2019-02-22T07:32:20.021Z,22.60
2019-02-22T07:34:48.470Z,23.80
2019-02-22T07:37:16.923Z,22.17
2019-02-22T07:39:45.367Z,25.23
2019-02-22T07:42:13.826Z,21.83
2019-02-22T07:44:42.544Z,22.53
2019-02-22T07:47:11.101Z,22.60
2019-02-22T07:49:39.688Z,22.03
2019-02-22T07:52:08.181Z,20.60
2019-02-22T07:54:36.619Z,21.37
2019-02-22T07:57:05.128Z,20.97
2019-02-22T07:59:33.550Z,19.97
2019-02-22T08:02:01.993Z,18.77
2019-02-22T08:04:30.444Z,19.67
2019-02-22T08:06:58.892Z,19.30
2019-02-22T08:09:27.365Z,19.73
2019-02-22T08:11:55.868Z,19.57
2019-02-22T08:14:24.294Z,19.00
2019-02-22T08:16:52.819Z,18.40
2019-02-22T08:19:21.267Z,18.07
2019-02-22T08:21:49.757Z,17.60
2019-02-22T08:24:18.219Z,18.50
2019-02-22T08:26:46.765Z,19.17
2019-02-22T08:29:15.219Z,18.03
2019-02-22T08:31:43.670Z,18.63
2019-02-22T08:34:12.090Z,18.27
2019-02-22T08:36:40.560Z,17.90
2019-02-22T08:39:09.031Z,18.20
2019-02-22T08:41:37.482Z,17.60
2019-02-22T08:44:06.009Z,17.67
2019-02-22T08:46:34.451Z,17.60
2019-02-22T08:49:02.872Z,18.50
2019-02-22T08:51:31.334Z,15.63
2019-02-22T08:53:59.765Z,15.87
2019-02-22T08:56:31.273Z,14.93
2019-02-22T08:58:59.701Z,14.57
2019-02-22T09:01:28.255Z,10.67
2019-02-22T09:03:56.749Z,8.20
2019-02-22T09:06:25.323Z,7.30
2019-02-22T09:08:53.724Z,6.67
2019-02-22T09:11:22.162Z,7.23
2019-02-22T09:13:50.677Z,8.30
2019-02-22T09:16:19.085Z,9.23
2019-02-22T09:18:47.528Z,9.70
2019-02-22T09:21:16.015Z,9.27
2019-02-22T09:23:44.450Z,8.33
2019-02-22T09:26:12.909Z,8.13
2019-02-22T09:28:41.348Z,6.83
2019-02-22T09:31:09.867Z,7.87
2019-02-22T09:33:38.785Z,8.13
2019-02-22T09:36:07.239Z,7.90
2019-02-22T09:38:35.700Z,7.97
2019-02-22T09:41:04.344Z,8.40
2019-02-22T09:43:32.824Z,8.77
2019-02-22T09:46:01.268Z,8.30
2019-02-22T09:48:29.774Z,7.40
2019-02-22T09:50:58.246Z,7.93
2019-02-22T09:53:26.789Z,7.40
2019-02-22T09:55:55.172Z,7.80
2019-02-22T09:58:23.721Z,7.40
2019-02-22T10:00:52.128Z,7.23
2019-02-22T10:03:20.569Z,7.30
2019-02-22T10:05:49.114Z,6.70
2019-02-22T10:08:17.522Z,6.97
2019-02-22T10:10:46.075Z,6.97
2019-02-22T10:13:14.514Z,6.63
2019-02-22T10:15:42.949Z,6.40
2019-02-22T10:18:11.392Z,5.60
2019-02-22T10:20:40.005Z,5.80
2019-02-22T10:23:08.372Z,5.57
2019-02-22T10:25:36.839Z,5.10
2019-02-22T10:28:05.260Z,5.83
2019-02-22T10:30:33.722Z,5.97
2019-02-22T10:33:02.159Z,5.33
2019-02-22T10:35:30.638Z,5.60
2019-02-22T10:37:59.147Z,5.50
2019-02-22T10:40:27.654Z,5.37
2019-02-22T10:42:58.481Z,5.27
2019-02-22T10:45:27.034Z,5.50
2019-02-22T10:47:55.454Z,5.37
2019-02-22T10:50:24.043Z,5.30
2019-02-22T10:53:01.853Z,5.87
2019-02-22T10:55:22.655Z,5.53
2019-02-22T10:57:51.304Z,5.30
2019-02-22T11:00:19.789Z,5.60
2019-02-22T11:02:48.263Z,5.50
2019-02-22T11:05:16.702Z,5.37
2019-02-22T11:07:45.182Z,4.93
2019-02-22T11:10:14.689Z,5.37
2019-02-22T11:12:43.127Z,6.27
2019-02-22T11:15:13.100Z,7.00
2019-02-22T11:17:41.624Z,6.17
2019-02-22T11:20:11.447Z,5.60
2019-02-22T11:22:39.859Z,7.63
2019-02-22T11:25:11.521Z,5.77
2019-02-22T11:27:39.972Z,5.53
2019-02-22T11:30:13.846Z,5.33
2019-02-22T11:32:42.389Z,5.57
2019-02-22T11:35:11.279Z,5.33
2019-02-22T11:37:39.739Z,5.80
2019-02-22T11:40:10.144Z,6.40
2019-02-22T11:42:38.613Z,5.50
2019-02-22T11:45:09.063Z,5.37
2019-02-22T11:47:37.539Z,5.50
2019-02-22T11:50:10.676Z,5.87
2019-02-22T11:52:39.111Z,6.00
2019-02-22T11:55:09.350Z,5.70
2019-02-22T11:57:38.019Z,6.17
2019-02-22T12:00:19.092Z,5.80
2019-02-22T12:02:48.080Z,6.23
2019-02-22T12:05:16.556Z,6.50
2019-02-22T12:07:44.991Z,5.70
2019-02-22T12:10:14.020Z,5.90
2019-02-22T12:12:42.472Z,6.13
2019-02-22T12:15:13.181Z,6.03
2019-02-22T12:17:41.695Z,6.20
2019-02-22T12:20:11.242Z,6.73
2019-02-22T12:22:39.646Z,5.53
2019-02-22T12:25:13.142Z,6.17
2019-02-22T12:27:41.580Z,6.87
2019-02-22T12:30:15.127Z,6.37
2019-02-22T12:32:43.588Z,6.20
2019-02-22T12:35:12.286Z,6.67
2019-02-22T12:37:40.755Z,7.07
2019-02-22T12:40:11.124Z,8.60
2019-02-22T12:42:39.578Z,8.23
2019-02-22T12:45:10.351Z,7.50
2019-02-22T12:47:38.803Z,7.57
2019-02-22T12:50:12.657Z,7.17
2019-02-22T12:52:44.106Z,8.17
2019-02-22T12:55:12.509Z,7.83
2019-02-22T12:57:41.009Z,8.07
2019-02-22T13:00:15.046Z,7.93
2019-02-22T13:02:43.513Z,8.60
2019-02-22T13:05:14.897Z,8.17
2019-02-22T13:07:43.351Z,8.97
2019-02-22T13:10:11.974Z,9.23
2019-02-22T13:12:40.432Z,8.97
2019-02-22T13:15:14.476Z,10.03
2019-02-22T13:17:41.618Z,9.17
2019-02-22T13:20:10.665Z,9.73
2019-02-22T13:22:39.140Z,10.37
2019-02-22T13:25:10.270Z,9.30
2019-02-22T13:27:38.706Z,9.60
2019-02-22T13:30:10.190Z,10.17
2019-02-22T13:32:38.662Z,10.10
2019-02-22T13:35:07.146Z,10.07
2019-02-22T13:37:35.615Z,9.60
2019-02-22T13:40:05.703Z,10.30
2019-02-22T13:42:36.099Z,9.77
2019-02-22T13:45:07.092Z,10.50
2019-02-22T13:47:35.545Z,8.80
2019-02-22T13:50:09.491Z,8.40
2019-02-22T13:52:38.091Z,8.53
2019-02-22T13:55:07.972Z,8.57
2019-02-22T13:57:36.478Z,7.80
2019-02-22T14:00:07.957Z,8.50
2019-02-22T14:02:37.865Z,7.53
2019-02-22T14:05:07.229Z,7.73
2019-02-22T14:07:35.697Z,8.43
2019-02-22T14:10:05.421Z,8.07
2019-02-22T14:12:33.858Z,8.33
2019-02-22T14:15:02.323Z,7.83
2019-02-22T14:17:30.798Z,8.00
2019-02-22T14:19:59.212Z,7.90
2019-02-22T14:22:27.883Z,8.63
2019-02-22T14:24:56.421Z,7.73
2019-02-22T14:27:24.845Z,8.30
2019-02-22T14:29:53.403Z,8.53
2019-02-22T14:32:21.910Z,9.90
2019-02-22T14:34:50.330Z,9.87
2019-02-22T14:37:19.345Z,9.83
2019-02-22T14:39:48.101Z,10.43
2019-02-22T14:42:16.559Z,9.83
2019-02-22T14:44:45.052Z,10.03
2019-02-22T14:47:13.588Z,9.40
2019-02-22T14:49:42.015Z,8.77
2019-02-22T14:52:12.693Z,9.67
2019-02-22T14:54:42.000Z,9.50
2019-02-22T14:57:10.398Z,8.80
2019-02-22T14:59:38.867Z,8.43
2019-02-22T15:02:07.347Z,8.43
2019-02-22T15:04:36.352Z,8.93
2019-02-22T15:07:04.984Z,8.43
2019-02-22T15:09:33.494Z,10.00
2019-02-22T15:12:01.980Z,9.60
2019-02-22T15:14:30.444Z,9.23
2019-02-22T15:17:03.614Z,9.03
2019-02-22T15:19:32.029Z,8.87
2019-02-22T15:22:01.239Z,9.57
2019-02-22T15:24:32.941Z,9.13
2019-02-22T15:27:01.177Z,9.47
2019-02-22T15:29:29.623Z,8.80
2019-02-22T15:31:58.086Z,9.33
2019-02-22T15:34:26.529Z,9.97
2019-02-22T15:36:55.012Z,9.70
2019-02-22T15:39:23.432Z,10.83
2019-02-22T15:41:51.937Z,10.17
2019-02-22T15:44:20.352Z,10.07
2019-02-22T15:46:48.774Z,10.13
2019-02-22T15:49:17.282Z,10.30
2019-02-22T15:51:49.106Z,10.73
2019-02-22T15:54:17.516Z,10.53
2019-02-22T15:56:46.021Z,10.50
2019-02-22T15:59:14.456Z,10.20
2019-02-22T16:01:42.876Z,9.60
2019-02-22T16:04:12.998Z,9.47
2019-02-22T16:06:41.423Z,10.23
2019-02-22T16:09:09.883Z,9.83
2019-02-22T16:11:38.386Z,10.73
2019-02-22T16:14:07.384Z,11.27
2019-02-22T16:16:36.129Z,10.77
2019-02-22T16:19:04.620Z,10.83
2019-02-22T16:21:33.065Z,10.73
2019-02-22T16:24:01.564Z,10.53
2019-02-22T16:26:30.963Z,10.73
2019-02-22T16:28:59.467Z,11.40
2019-02-22T16:31:27.916Z,11.57
2019-02-22T16:33:56.405Z,11.73
2019-02-22T16:36:24.853Z,11.67
2019-02-22T16:38:53.291Z,11.80
2019-02-22T16:41:21.826Z,12.53
2019-02-22T16:43:50.266Z,12.00
2019-02-22T16:46:18.724Z,11.63
2019-02-22T16:48:47.496Z,12.00
2019-02-22T16:51:15.958Z,12.50
2019-02-22T16:53:44.397Z,12.00
2019-02-22T16:56:12.838Z,12.40
2019-02-22T16:58:41.349Z,12.50
2019-02-22T17:01:10.585Z,12.37
2019-02-22T17:03:39.088Z,13.60
2019-02-22T17:06:07.646Z,12.03
2019-02-22T17:08:36.127Z,13.33
2019-02-22T17:11:04.684Z,12.13
2019-02-22T17:13:33.173Z,13.57
2019-02-22T17:16:01.734Z,13.30
2019-02-22T17:18:30.290Z,13.73
2019-02-22T17:20:58.711Z,13.63
2019-02-22T17:23:27.160Z,13.33
2019-02-22T17:25:55.627Z,13.53
2019-02-22T17:28:29.467Z,13.40
2019-02-22T17:30:57.922Z,13.17
2019-02-22T17:33:26.371Z,12.77
2019-02-22T17:35:54.801Z,12.20
2019-02-22T17:38:23.257Z,13.27
2019-02-22T17:40:51.676Z,13.13
2019-02-22T17:43:20.259Z,13.43
2019-02-22T17:45:49.582Z,13.40
2019-02-22T17:48:18.045Z,14.20
2019-02-22T17:50:46.559Z,13.90
2019-02-22T17:53:15.072Z,14.33
2019-02-22T17:55:43.535Z,13.17
2019-02-22T17:58:11.973Z,14.53
2019-02-22T18:00:40.582Z,13.73
2019-02-22T18:03:09.082Z,13.53
2019-02-22T18:05:37.563Z,14.20
2019-02-22T18:08:06.056Z,14.00
2019-02-22T18:10:34.495Z,14.67
2019-02-22T18:13:03.376Z,14.47
2019-02-22T18:15:32.441Z,14.07
2019-02-22T18:18:00.894Z,15.27
2019-02-22T18:20:29.400Z,14.37
2019-02-22T18:22:57.870Z,14.90
2019-02-22T18:25:26.280Z,14.70
2019-02-22T18:27:54.832Z,14.43
2019-02-22T18:30:24.884Z,13.90
2019-02-22T18:32:53.315Z,14.63
2019-02-22T18:35:21.842Z,14.10
2019-02-22T18:37:52.966Z,14.67
2019-02-22T18:40:23.187Z,15.73
2019-02-22T18:42:52.488Z,17.10
2019-02-22T18:45:20.916Z,15.93
2019-02-22T18:47:49.372Z,15.43
2019-02-22T18:50:17.859Z,15.27
2019-02-22T18:52:46.297Z,14.37
2019-02-22T18:55:14.845Z,15.07
2019-02-22T18:57:43.256Z,15.07
2019-02-22T19:00:20.642Z,15.87
2019-02-22T19:02:49.554Z,15.77
2019-02-22T19:05:17.969Z,17.87
2019-02-22T19:07:46.619Z,16.97
2019-02-22T19:10:17.003Z,16.03
2019-02-22T19:12:45.453Z,16.47
2019-02-22T19:15:15.034Z,16.50
2019-02-22T19:17:43.606Z,16.80
2019-02-22T19:20:14.940Z,15.40
2019-02-22T19:22:43.430Z,16.60
2019-02-22T19:25:11.945Z,17.50
2019-02-22T19:27:40.392Z,17.47
2019-02-22T19:30:20.718Z,15.30
2019-02-22T19:32:49.154Z,16.10
2019-02-22T19:35:17.669Z,16.67
2019-02-22T19:37:46.164Z,16.97
2019-02-22T19:40:20.698Z,15.10
2019-02-22T19:42:49.105Z,16.30
2019-02-22T19:45:17.637Z,16.77
2019-02-22T19:47:46.137Z,16.13
2019-02-22T19:50:15.253Z,16.87
2019-02-22T19:52:43.904Z,16.67
2019-02-22T19:55:14.572Z,17.00
2019-02-22T19:57:43.041Z,17.07
2019-02-22T20:00:23.004Z,15.97
2019-02-22T20:02:51.824Z,16.77
2019-02-22T20:05:20.408Z,22.57
2019-02-22T20:07:49.242Z,19.87
2019-02-22T20:10:20.229Z,18.87
2019-02-22T20:12:48.674Z,20.07
2019-02-22T20:15:17.847Z,18.43
2019-02-22T20:17:53.667Z,19.50
2019-02-22T20:20:18.118Z,21.97
2019-02-22T20:22:46.598Z,23.17
2019-02-22T20:25:15.144Z,24.17
2019-02-22T20:27:43.664Z,22.30
2019-02-22T20:30:16.505Z,20.20
2019-02-22T20:32:45.006Z,22.60
2019-02-22T20:35:19.855Z,25.73
2019-02-22T20:37:52.876Z,25.10
2019-02-22T20:40:18.489Z,19.73
2019-02-22T20:42:47.132Z,18.33
2019-02-22T20:45:15.771Z,18.47
2019-02-22T20:47:44.175Z,17.53
2019-02-22T20:50:14.257Z,16.93
2019-02-22T20:52:42.716Z,16.40
2019-02-22T20:55:11.893Z,16.33
2019-02-22T20:57:40.326Z,16.60
2019-02-22T21:00:11.564Z,16.37
2019-02-22T21:02:40.137Z,15.67
2019-02-22T21:05:10.234Z,16.60
2019-02-22T21:07:38.726Z,16.80
2019-02-22T21:10:10.457Z,15.43
2019-02-22T21:12:38.905Z,15.47
2019-02-22T21:15:10.711Z,14.07
2019-02-22T21:17:39.146Z,16.10
2019-02-22T21:20:10.128Z,14.93
2019-02-22T21:22:38.565Z,14.83
2019-02-22T21:25:09.781Z,13.97
2019-02-22T21:27:38.228Z,14.87
2019-02-22T21:30:09.724Z,14.43
2019-02-22T21:32:38.212Z,12.80
2019-02-22T21:35:08.083Z,14.40
2019-02-22T21:37:36.692Z,13.60
2019-02-22T21:40:07.681Z,12.97
2019-02-22T21:42:36.199Z,14.03
2019-02-22T21:45:06.941Z,13.60
2019-02-22T21:47:35.428Z,12.80
2019-02-22T21:50:05.205Z,13.97
2019-02-22T21:52:33.673Z,13.17
2019-02-22T21:55:02.086Z,13.60
2019-02-22T21:57:30.545Z,14.23
2019-02-22T21:59:59.088Z,14.33
2019-02-22T22:02:27.514Z,13.73
2019-02-22T22:04:55.959Z,14.00
2019-02-22T22:07:24.389Z,14.10
2019-02-22T22:09:52.947Z,14.83
2019-02-22T22:12:21.444Z,14.17
2019-02-22T22:14:49.912Z,13.57
2019-02-22T22:17:18.340Z,14.07
2019-02-22T22:19:46.813Z,15.00
2019-02-22T22:22:15.232Z,15.33
2019-02-22T22:24:43.667Z,15.50
2019-02-22T22:27:12.106Z,13.30
2019-02-22T22:29:40.572Z,14.63
2019-02-22T22:32:09.366Z,14.57
2019-02-22T22:34:37.828Z,14.60
2019-02-22T22:37:06.335Z,13.40
2019-02-22T22:39:34.814Z,13.37
2019-02-22T22:42:03.248Z,13.70
2019-02-22T22:44:31.773Z,13.73
2019-02-22T22:47:00.198Z,13.67
2019-02-22T22:49:28.642Z,14.40
2019-02-22T22:51:57.089Z,13.00
2019-02-22T22:54:25.512Z,12.63
2019-02-22T22:56:53.968Z,12.43
2019-02-22T22:59:22.404Z,11.80
2019-02-22T23:01:51.338Z,12.17
2019-02-22T23:04:20.165Z,12.20
2019-02-22T23:06:48.587Z,11.03
2019-02-22T23:09:18.786Z,12.10
2019-02-22T23:11:47.232Z,11.50
2019-02-22T23:14:16.304Z,11.17
2019-02-22T23:16:44.836Z,11.60
2019-02-22T23:19:13.261Z,11.33
2019-02-22T23:21:41.681Z,12.30
2019-02-22T23:24:10.222Z,10.70
2019-02-22T23:26:38.685Z,10.87
2019-02-22T23:29:07.112Z,10.97
2019-02-22T23:31:35.587Z,11.90
2019-02-22T23:34:04.071Z,11.27
2019-02-22T23:36:32.515Z,12.23
2019-02-22T23:39:01.803Z,11.83
2019-02-22T23:41:30.221Z,11.43
2019-02-22T23:43:58.671Z,11.40
2019-02-22T23:46:27.110Z,11.03
2019-02-22T23:48:55.553Z,11.60
2019-02-22T23:51:24.015Z,11.73
2019-02-22T23:53:52.502Z,10.50
2019-02-22T23:56:21.165Z,11.50
2019-02-22T23:58:49.591Z,11.47
